TTCP Airport Information

Runway Information
Runway 11 Length 9002 ft width 159 ft Elevation 29 ft Threshold 1003 ft Heading 94
Runway 29 Length 9002 ft Width 159 ft Elevation 20 ft Threshold N/A Heading 274
Airport Frequencies
Type APP Name PIARCO APP Frequency 119 MHZ
Type GND Name GND Frequency 121.7 MHZ
Type TWR Name TWR Frequency 118.4 MHZ
Airport Navaids
Type NDB Name Crown Point Frequency 323 KHZ
Airport Weather Information & NOTAM
ADDS - METARS form results

(1646 UTC 08 December 2022)
Data provider http://aviationweather.gov/metar/data/
 
METAR text: TTCP 081600Z 34008KT 9999 FEW020 30/22 Q1012 NOSIG
Conditions at: TTCP (CROWN PT/SCARBOR, TT) observed 1600 UTC 08 December 2022
Temperature: 30.0°C (86°F)
Dewpoint: 22.0°C (72°F) [RH = 62%]
Pressure (altimeter): 29.88 inches Hg (1012.0 mb)
Winds: from the NNW (340 degrees) at 9 MPH (8 knots; 4.1 m/s)
Visibility: 6 or more miles (10+ km)
Ceiling: at least 12,000 feet AGL
Clouds: few clouds at 2000 feet AGL
Weather: no significant weather observed at this time

Forecast for: TTCP (CROWN PT/SCARBOR, TT)
Text: TAF TTCP 081600Z 0818/0918 34008KT 9999 FEW018
Forecast period: 1800 UTC 08 December 2022 to 1800 UTC 09 December 2022
Forecast type: FROM: standard forecast or significant change
Winds: from the NNW (340 degrees) at 9 MPH (8 knots; 4.1 m/s)
Visibility: 6 or more miles (10+ km)
Ceiling: at least 12,000 feet AGL
Clouds: few clouds at 1800 feet AGL
Weather: no significant weather forecast for this period